createdAt,value
2022-08-10T00:01:08.440Z,99.90
2022-08-10T00:03:35.359Z,99.90
2022-08-10T00:06:02.255Z,99.90
2022-08-10T00:08:29.323Z,99.90
2022-08-10T00:10:57.350Z,99.90
2022-08-10T00:13:26.156Z,99.90
2022-08-10T00:15:55.343Z,99.90
2022-08-10T00:18:28.897Z,99.90
2022-08-10T00:21:03.595Z,99.90
2022-08-10T00:23:30.465Z,99.90
2022-08-10T00:25:57.304Z,99.90
2022-08-10T00:28:24.225Z,99.90
2022-08-10T00:30:51.400Z,99.90
2022-08-10T00:33:18.523Z,99.90
2022-08-10T00:35:45.399Z,99.90
2022-08-10T00:38:12.555Z,99.90
2022-08-10T00:40:39.505Z,99.90
2022-08-10T00:43:06.876Z,99.90
2022-08-10T00:45:34.742Z,99.90
2022-08-10T00:48:01.693Z,99.90
2022-08-10T00:50:28.779Z,99.90
2022-08-10T00:52:55.944Z,99.90
2022-08-10T00:55:23.228Z,99.90
2022-08-10T00:57:54.996Z,99.90
2022-08-10T01:00:25.833Z,99.90
2022-08-10T01:02:53.174Z,99.90
2022-08-10T01:05:20.868Z,99.90
2022-08-10T01:08:03.092Z,99.90
2022-08-10T01:10:43.646Z,99.90
2022-08-10T01:13:10.486Z,99.90
2022-08-10T01:16:03.833Z,99.90
2022-08-10T01:18:45.789Z,99.90
2022-08-10T01:21:37.638Z,99.90
2022-08-10T01:24:26.103Z,99.90
2022-08-10T01:27:29.988Z,99.90
2022-08-10T01:30:15.033Z,99.90
2022-08-10T01:33:09.991Z,99.90
2022-08-10T01:35:45.056Z,99.90
2022-08-10T01:38:26.210Z,99.90
2022-08-10T01:41:09.813Z,99.90
2022-08-10T01:43:42.684Z,99.90
2022-08-10T01:46:12.343Z,99.90
2022-08-10T01:48:47.296Z,99.90
2022-08-10T01:51:47.017Z,99.90
2022-08-10T01:54:18.570Z,99.90
2022-08-10T01:56:48.923Z,99.90
2022-08-10T01:59:25.908Z,99.90
2022-08-10T02:01:57.738Z,99.90
2022-08-10T02:04:27.786Z,99.90
2022-08-10T02:06:56.640Z,99.90
2022-08-10T02:09:34.515Z,99.90
2022-08-10T02:12:08.602Z,99.90
2022-08-10T02:14:42.967Z,99.90
2022-08-10T02:18:00.465Z,99.90
2022-08-10T02:20:05.548Z,99.90
2022-08-10T02:22:46.030Z,99.90
2022-08-10T02:25:41.774Z,99.90
2022-08-10T02:28:04.855Z,99.90
2022-08-10T02:30:32.944Z,99.90
2022-08-10T02:33:02.051Z,99.90
2022-08-10T02:35:53.801Z,99.90
2022-08-10T02:38:58.821Z,99.90
2022-08-10T02:45:13.652Z,99.90
2022-08-10T02:45:27.175Z,99.90
2022-08-10T02:47:26.386Z,99.90
2022-08-10T02:50:07.853Z,99.90
2022-08-10T02:53:03.712Z,99.90
2022-08-10T02:55:50.909Z,99.90
2022-08-10T02:58:29.693Z,99.90
2022-08-10T03:00:59.902Z,99.90
2022-08-10T03:03:31.506Z,99.90
2022-08-10T03:06:07.669Z,99.90
2022-08-10T03:08:42.005Z,99.90
2022-08-10T03:12:35.141Z,99.90
2022-08-10T03:14:10.700Z,99.90
2022-08-10T03:16:39.402Z,99.90
2022-08-10T03:19:08.416Z,99.90
2022-08-10T03:21:56.822Z,99.90
2022-08-10T03:24:32.810Z,99.90
2022-08-10T03:27:01.496Z,99.90
2022-08-10T03:29:28.907Z,99.90
2022-08-10T03:31:56.587Z,99.90
2022-08-10T03:34:33.560Z,99.90
2022-08-10T03:37:01.154Z,99.90
2022-08-10T03:39:28.539Z,99.90
2022-08-10T03:42:02.121Z,99.90
2022-08-10T03:44:32.473Z,99.90
2022-08-10T03:47:04.586Z,99.90
2022-08-10T03:49:46.232Z,99.90
2022-08-10T03:52:14.612Z,99.90
2022-08-10T03:54:42.956Z,99.90
2022-08-10T03:57:11.319Z,99.90
2022-08-10T03:59:38.504Z,99.90
2022-08-10T04:02:45.905Z,99.90
2022-08-10T04:04:55.716Z,99.90
2022-08-10T04:07:22.803Z,99.90
2022-08-10T04:09:54.460Z,99.90
2022-08-10T04:12:23.313Z,99.90
2022-08-10T04:14:52.948Z,99.90
2022-08-10T04:18:02.830Z,99.90
2022-08-10T04:20:15.412Z,99.90
2022-08-10T04:22:44.806Z,99.90
2022-08-10T04:25:14.762Z,99.90
2022-08-10T04:27:42.861Z,99.90
2022-08-10T04:30:10.518Z,99.90
2022-08-10T04:32:38.096Z,99.90
2022-08-10T04:35:06.928Z,99.90
2022-08-10T04:37:37.281Z,99.90
2022-08-10T04:40:29.792Z,99.90
2022-08-10T04:43:13.652Z,99.90
2022-08-10T04:45:49.889Z,99.90
2022-08-10T04:48:42.497Z,99.90
2022-08-10T04:51:20.459Z,99.90
2022-08-10T04:54:04.080Z,99.90
2022-08-10T04:56:35.623Z,99.90
2022-08-10T04:59:02.679Z,99.90
2022-08-10T05:02:09.853Z,99.90
2022-08-10T05:04:37.031Z,99.90
2022-08-10T05:07:09.333Z,99.90
2022-08-10T05:10:02.467Z,99.90
2022-08-10T05:12:27.921Z,99.90
2022-08-10T05:14:55.038Z,99.90
2022-08-10T05:17:22.643Z,99.90
2022-08-10T05:20:04.559Z,99.90
2022-08-10T05:22:34.974Z,99.90
2022-08-10T05:25:02.050Z,99.90
2022-08-10T05:27:29.160Z,99.90
2022-08-10T05:30:02.292Z,99.90
2022-08-10T05:32:55.241Z,99.90
2022-08-10T05:35:21.436Z,99.90
2022-08-10T05:38:09.061Z,99.90
2022-08-10T05:40:39.375Z,99.90
2022-08-10T05:43:07.190Z,99.90
2022-08-10T05:45:34.128Z,99.90
2022-08-10T05:48:54.459Z,99.90
2022-08-10T05:51:09.155Z,99.90
2022-08-10T05:54:01.559Z,99.90
2022-08-10T05:56:25.998Z,99.90
2022-08-10T05:58:53.382Z,99.90
2022-08-10T06:01:24.959Z,99.90
2022-08-10T06:03:58.575Z,99.90
2022-08-10T06:06:30.823Z,99.90
2022-08-10T06:08:59.865Z,99.90
2022-08-10T06:12:26.815Z,99.90
2022-08-10T06:14:36.545Z,99.90
2022-08-10T06:17:04.146Z,99.90
2022-08-10T06:19:31.690Z,99.90
2022-08-10T06:22:01.312Z,99.90
2022-08-10T06:24:31.270Z,99.90
2022-08-10T06:26:59.676Z,99.90
2022-08-10T06:29:29.595Z,99.90
2022-08-10T06:31:58.631Z,99.90
2022-08-10T06:34:34.350Z,99.90
2022-08-10T06:37:06.487Z,99.90
2022-08-10T06:39:35.321Z,99.90
2022-08-10T06:42:18.364Z,99.90
2022-08-10T06:45:07.606Z,99.90
2022-08-10T06:47:46.163Z,99.90
2022-08-10T06:50:44.605Z,99.90
2022-08-10T06:53:13.969Z,99.90
2022-08-10T06:55:55.486Z,99.90
2022-08-10T06:58:28.291Z,99.90
2022-08-10T07:00:57.051Z,99.90
2022-08-10T07:03:30.557Z,99.90
2022-08-10T07:05:59.811Z,99.90
2022-08-10T07:08:31.337Z,99.90
2022-08-10T07:10:59.340Z,99.90
2022-08-10T07:14:14.291Z,99.90
2022-08-10T07:16:17.714Z,99.90
2022-08-10T07:18:47.520Z,99.90
2022-08-10T07:21:16.126Z,99.90
2022-08-10T07:23:57.700Z,99.90
2022-08-10T07:26:28.770Z,99.90
2022-08-10T07:28:56.636Z,99.90
2022-08-10T07:31:54.861Z,99.90
2022-08-10T07:34:14.256Z,99.90
2022-08-10T07:37:00.184Z,99.90
2022-08-10T07:40:02.371Z,99.90
2022-08-10T07:42:24.206Z,99.90
2022-08-10T07:44:51.664Z,99.90
2022-08-10T07:47:46.227Z,99.90
2022-08-10T07:50:21.070Z,99.90
2022-08-10T07:52:49.681Z,99.90
2022-08-10T07:55:19.475Z,99.90
2022-08-10T07:58:06.435Z,99.90
2022-08-10T08:00:35.126Z,99.90
2022-08-10T08:03:03.736Z,99.90
2022-08-10T08:05:58.989Z,99.90
2022-08-10T08:08:21.424Z,99.90
2022-08-10T08:10:49.078Z,99.90
2022-08-10T08:13:17.533Z,99.90
2022-08-10T08:16:17.456Z,99.90
2022-08-10T08:18:37.011Z,99.90
2022-08-10T08:24:05.725Z,99.90
2022-08-10T08:24:06.310Z,99.90
2022-08-10T08:26:40.888Z,99.90
2022-08-10T08:29:12.564Z,99.90
2022-08-10T08:31:54.237Z,99.90
2022-08-10T08:34:28.409Z,99.90
2022-08-10T08:36:59.611Z,99.90
2022-08-10T08:39:27.057Z,99.90
2022-08-10T08:41:58.373Z,99.90
2022-08-10T08:44:35.183Z,99.90
2022-08-10T08:48:03.065Z,99.90
2022-08-10T08:50:41.276Z,99.90
2022-08-10T08:53:21.958Z,99.90
2022-08-10T08:56:06.331Z,99.90
2022-08-10T08:58:49.418Z,99.90
2022-08-10T09:01:40.452Z,99.90
2022-08-10T09:04:45.661Z,99.90
2022-08-10T09:07:59.312Z,99.90
2022-08-10T09:10:34.146Z,99.90
2022-08-10T09:13:13.068Z,99.90
2022-08-10T09:15:51.972Z,99.90
2022-08-10T09:18:33.891Z,99.90
2022-08-10T09:21:17.583Z,99.90
2022-08-10T09:24:06.461Z,99.90
2022-08-10T09:26:53.310Z,99.90
2022-08-10T09:29:26.580Z,99.90
2022-08-10T09:36:15.448Z,99.90
2022-08-10T09:36:29.705Z,99.90
2022-08-10T09:40:56.531Z,99.90
2022-08-10T09:42:20.849Z,99.90
2022-08-10T09:45:02.426Z,99.00
2022-08-10T09:48:11.141Z,98.10
2022-08-10T09:54:00.179Z,96.80
2022-08-10T09:56:39.764Z,97.40
2022-08-10T10:00:00.585Z,95.20
2022-08-10T10:02:49.311Z,95.30
2022-08-10T10:05:33.801Z,96.30
2022-08-10T10:08:10.874Z,96.40
2022-08-10T10:11:04.976Z,97.10
2022-08-10T10:14:03.491Z,96.60
2022-08-10T10:16:37.504Z,96.90
2022-08-10T10:19:39.931Z,97.00
2022-08-10T10:22:31.839Z,95.30
2022-08-10T10:25:19.691Z,94.90
2022-08-10T10:27:53.537Z,94.70
2022-08-10T10:30:24.603Z,95.80
2022-08-10T10:33:13.060Z,95.00
2022-08-10T10:35:52.935Z,96.40
2022-08-10T10:38:24.635Z,95.30
2022-08-10T10:41:03.092Z,95.20
2022-08-10T10:43:44.747Z,95.70
2022-08-10T10:46:14.746Z,94.90
2022-08-10T10:49:02.607Z,93.50
2022-08-10T10:51:36.935Z,93.30
2022-08-10T10:54:04.679Z,93.10
2022-08-10T10:56:55.354Z,92.70
2022-08-10T10:59:53.658Z,92.50
2022-08-10T11:02:24.176Z,92.40
2022-08-10T11:05:19.063Z,92.70
2022-08-10T11:07:57.903Z,93.90
2022-08-10T11:10:47.551Z,93.00
2022-08-10T11:14:25.621Z,92.90
2022-08-10T11:16:43.449Z,91.90
2022-08-10T11:19:15.632Z,92.30
2022-08-10T11:22:03.690Z,92.30
2022-08-10T11:25:03.376Z,91.90
2022-08-10T11:27:49.153Z,90.80
2022-08-10T11:30:43.534Z,91.50
2022-08-10T11:34:04.115Z,91.70
2022-08-10T11:36:53.219Z,92.00
2022-08-10T11:39:31.961Z,91.70
2022-08-10T11:42:35.747Z,90.70
2022-08-10T11:45:12.342Z,91.00
2022-08-10T11:47:45.203Z,91.70
2022-08-10T11:50:24.814Z,90.60
2022-08-10T11:53:28.969Z,90.80
2022-08-10T11:56:11.037Z,91.10
2022-08-10T11:58:59.982Z,91.30
2022-08-10T12:01:32.797Z,90.90
2022-08-10T12:04:07.512Z,90.30
2022-08-10T12:06:55.173Z,91.40
2022-08-10T12:10:10.939Z,90.80
2022-08-10T12:12:11.935Z,90.40
2022-08-10T12:14:50.397Z,90.50
2022-08-10T12:17:35.749Z,90.80
2022-08-10T12:20:16.586Z,90.40
2022-08-10T12:22:56.827Z,91.60
2022-08-10T12:25:57.945Z,89.70
2022-08-10T12:28:50.313Z,90.70
2022-08-10T12:31:25.038Z,90.50
2022-08-10T12:34:23.811Z,90.80
2022-08-10T12:37:31.816Z,88.70
2022-08-10T12:40:38.924Z,89.30
2022-08-10T12:44:07.032Z,89.20
2022-08-10T12:46:28.407Z,88.60
2022-08-10T12:49:25.850Z,89.20
2022-08-10T12:52:00.994Z,90.10
2022-08-10T12:54:33.996Z,88.60
2022-08-10T12:57:15.579Z,87.20
2022-08-10T12:59:45.015Z,88.90
2022-08-10T13:02:24.556Z,88.60
2022-08-10T13:04:55.849Z,90.00
2022-08-10T13:08:07.284Z,89.70
2022-08-10T13:10:23.109Z,89.50
2022-08-10T13:12:54.234Z,87.60
2022-08-10T13:15:49.207Z,88.30
2022-08-10T13:18:23.587Z,88.00
2022-08-10T13:20:53.384Z,87.60
2022-08-10T13:23:28.627Z,88.10
2022-08-10T13:25:59.445Z,88.60
2022-08-10T13:28:49.669Z,88.10
2022-08-10T13:32:03.220Z,87.70
2022-08-10T13:34:43.624Z,88.80
2022-08-10T13:37:09.382Z,89.20
2022-08-10T13:39:58.194Z,86.00
2022-08-10T13:42:32.421Z,89.10
2022-08-10T13:45:14.399Z,86.20
2022-08-10T13:47:49.702Z,86.40
2022-08-10T13:50:35.115Z,85.70
2022-08-10T13:53:13.289Z,88.20
2022-08-10T13:55:53.752Z,87.80
2022-08-10T13:58:32.216Z,85.50
2022-08-10T14:01:21.827Z,87.10
2022-08-10T14:03:51.297Z,87.80
2022-08-10T14:06:20.209Z,88.70
2022-08-10T14:08:51.468Z,86.10
2022-08-10T14:11:20.364Z,86.80
2022-08-10T14:13:55.078Z,88.30
2022-08-10T14:16:22.901Z,87.10
2022-08-10T14:18:52.031Z,85.60
2022-08-10T14:21:19.480Z,88.00
2022-08-10T14:23:53.177Z,87.10
2022-08-10T14:26:31.004Z,86.80
2022-08-10T14:29:05.103Z,86.50
2022-08-10T14:31:34.912Z,87.10
2022-08-10T14:34:05.509Z,87.00
2022-08-10T14:36:42.266Z,85.40
2022-08-10T14:39:14.756Z,86.30
2022-08-10T14:42:03.192Z,89.20
2022-08-10T14:44:32.234Z,88.30
2022-08-10T14:47:07.935Z,86.20
2022-08-10T14:49:58.047Z,85.50
2022-08-10T14:52:27.591Z,85.50
2022-08-10T14:54:56.544Z,85.90
2022-08-10T14:57:24.493Z,86.00
2022-08-10T15:00:28.121Z,84.80
2022-08-10T15:03:02.222Z,85.70
2022-08-10T15:05:39.381Z,84.80
2022-08-10T15:08:11.418Z,84.70
2022-08-10T15:10:39.433Z,85.50
2022-08-10T15:13:33.850Z,83.80
2022-08-10T15:16:12.080Z,83.70
2022-08-10T15:18:58.371Z,83.80
2022-08-10T15:21:42.357Z,84.30
2022-08-10T15:24:37.282Z,84.50
2022-08-10T15:27:08.724Z,85.10
2022-08-10T15:29:57.454Z,84.80
2022-08-10T15:32:52.894Z,84.40
2022-08-10T15:35:42.307Z,83.10
2022-08-10T15:38:10.381Z,83.60
2022-08-10T15:40:50.511Z,84.60
2022-08-10T15:43:25.938Z,83.90
2022-08-10T15:45:57.644Z,83.50
2022-08-10T15:48:29.097Z,83.90
2022-08-10T15:51:05.917Z,84.70
2022-08-10T15:53:49.165Z,82.20
2022-08-10T15:56:28.402Z,82.50
2022-08-10T15:59:10.975Z,84.20
2022-08-10T16:02:14.811Z,83.30
2022-08-10T16:04:47.997Z,82.70
2022-08-10T16:07:46.297Z,82.60
2022-08-10T16:10:25.452Z,81.80
2022-08-10T16:13:01.195Z,81.60
2022-08-10T16:15:30.234Z,84.70
2022-08-10T16:18:08.313Z,82.70
2022-08-10T16:20:53.527Z,82.20
2022-08-10T16:23:34.758Z,83.40
2022-08-10T16:26:15.029Z,81.70
2022-08-10T16:28:49.891Z,81.40
2022-08-10T16:31:29.258Z,83.30
2022-08-10T16:33:59.578Z,81.80
2022-08-10T16:36:41.516Z,82.60
2022-08-10T16:39:20.381Z,82.60
2022-08-10T16:42:05.003Z,82.50
2022-08-10T16:44:51.374Z,83.70
2022-08-10T16:47:26.705Z,81.00
2022-08-10T16:49:57.720Z,83.30
2022-08-10T16:52:27.236Z,82.70
2022-08-10T16:55:17.246Z,83.10
2022-08-10T16:57:54.970Z,83.40
2022-08-10T17:00:23.227Z,82.60
2022-08-10T17:02:57.121Z,82.60
2022-08-10T17:06:01.601Z,84.40
2022-08-10T17:08:17.487Z,82.40
2022-08-10T17:10:44.605Z,83.30
2022-08-10T17:13:13.744Z,83.40
2022-08-10T17:15:51.346Z,83.40
2022-08-10T17:18:29.160Z,83.20
2022-08-10T17:21:05.541Z,84.30
2022-08-10T17:23:35.588Z,85.00
2022-08-10T17:26:12.510Z,85.50
2022-08-10T17:28:49.562Z,85.80
2022-08-10T17:31:53.660Z,85.60
2022-08-10T17:34:23.249Z,86.50
2022-08-10T17:36:57.275Z,87.10
2022-08-10T17:39:33.937Z,86.80
2022-08-10T17:42:01.829Z,86.20
2022-08-10T17:44:34.482Z,87.10
2022-08-10T17:47:11.262Z,87.20
2022-08-10T17:49:39.919Z,87.40
2022-08-10T17:52:10.569Z,88.10
2022-08-10T17:54:44.382Z,87.70
2022-08-10T17:57:18.639Z,88.40
2022-08-10T17:59:47.797Z,88.70
2022-08-10T18:02:26.658Z,89.30
2022-08-10T18:05:00.340Z,89.40
2022-08-10T18:07:35.291Z,89.10
2022-08-10T18:10:04.883Z,89.80
2022-08-10T18:12:43.873Z,90.30
2022-08-10T18:15:14.324Z,91.60
2022-08-10T18:17:46.271Z,92.80
2022-08-10T18:20:15.969Z,93.50
2022-08-10T18:22:50.014Z,94.10
2022-08-10T18:25:33.871Z,94.70
2022-08-10T18:28:05.077Z,94.50
2022-08-10T18:30:48.066Z,94.70
2022-08-10T18:33:16.370Z,95.00
2022-08-10T18:35:45.969Z,94.90
2022-08-10T18:38:14.848Z,95.70
2022-08-10T18:40:50.223Z,95.70
2022-08-10T18:44:07.341Z,95.20
2022-08-10T18:46:12.776Z,95.60
2022-08-10T18:48:46.917Z,95.30
2022-08-10T18:51:14.235Z,95.40
2022-08-10T18:53:50.547Z,95.60
2022-08-10T18:56:23.228Z,95.90
2022-08-10T18:59:09.012Z,95.90
2022-08-10T19:01:57.180Z,95.80
2022-08-10T19:04:30.079Z,96.30
2022-08-10T19:07:16.104Z,96.40
2022-08-10T19:09:56.481Z,96.80
2022-08-10T19:12:55.022Z,96.60
2022-08-10T19:16:16.774Z,97.10
2022-08-10T19:19:22.124Z,97.30
2022-08-10T19:22:02.190Z,97.80
2022-08-10T19:24:35.026Z,97.80
2022-08-10T19:27:29.453Z,98.00
2022-08-10T19:30:12.458Z,98.50
2022-08-10T19:33:31.078Z,98.50
2022-08-10T19:36:17.359Z,98.90
2022-08-10T19:39:08.343Z,99.20
2022-08-10T19:41:45.337Z,98.80
2022-08-10T19:44:42.473Z,98.90
2022-08-10T19:47:35.195Z,99.20
2022-08-10T19:50:15.924Z,98.70
2022-08-10T19:52:58.533Z,98.60
2022-08-10T19:55:27.975Z,98.90
2022-08-10T19:58:22.099Z,98.80
2022-08-10T20:01:06.911Z,98.70
2022-08-10T20:04:12.275Z,98.90
2022-08-10T20:06:49.955Z,98.60
2022-08-10T20:09:27.511Z,98.60
2022-08-10T20:12:02.229Z,98.80
2022-08-10T20:15:02.171Z,98.70
2022-08-10T20:17:45.151Z,98.70
2022-08-10T20:20:31.573Z,98.90
2022-08-10T20:23:20.954Z,98.70
2022-08-10T20:26:01.848Z,99.00
2022-08-10T20:28:42.722Z,99.10
2022-08-10T20:31:17.554Z,99.40
2022-08-10T20:34:02.030Z,99.80
2022-08-10T20:36:36.862Z,99.50
2022-08-10T20:39:20.894Z,99.80
2022-08-10T20:41:50.735Z,99.60
2022-08-10T20:44:23.491Z,99.70
2022-08-10T20:47:08.636Z,99.80
2022-08-10T20:49:59.329Z,99.80
2022-08-10T20:52:28.125Z,99.90
2022-08-10T20:55:02.011Z,99.90
2022-08-10T20:58:04.569Z,99.90
2022-08-10T21:01:09.926Z,99.90
2022-08-10T21:04:03.205Z,99.90
2022-08-10T21:06:43.320Z,99.90
2022-08-10T21:09:36.664Z,99.90
2022-08-10T21:12:06.487Z,99.90
2022-08-10T21:14:51.958Z,99.90
2022-08-10T21:17:43.126Z,99.90
2022-08-10T21:23:38.966Z,99.90
2022-08-10T21:25:42.223Z,99.90
2022-08-10T21:26:11.136Z,99.90
2022-08-10T21:28:57.775Z,99.90
2022-08-10T21:31:41.494Z,99.90
2022-08-10T21:34:32.033Z,99.90
2022-08-10T21:37:20.210Z,99.90
2022-08-10T21:39:50.097Z,99.90
2022-08-10T21:43:44.094Z,99.90
2022-08-10T21:46:54.818Z,99.90
2022-08-10T21:50:16.142Z,99.90
2022-08-10T21:53:43.884Z,99.90
2022-08-10T21:56:32.653Z,99.90
2022-08-10T21:59:29.197Z,99.90
2022-08-10T22:02:28.391Z,99.90
2022-08-10T22:05:20.155Z,99.90
2022-08-10T22:08:12.855Z,99.90
2022-08-10T22:11:06.483Z,99.90
2022-08-10T22:13:56.908Z,99.90
2022-08-10T22:20:27.793Z,99.90
2022-08-10T22:23:27.371Z,99.90
2022-08-10T22:27:08.189Z,99.90
2022-08-10T22:30:06.635Z,99.90
2022-08-10T22:31:27.381Z,99.90
2022-08-10T22:33:04.873Z,99.90
2022-08-10T22:35:59.426Z,99.90
2022-08-10T22:38:57.017Z,99.90
2022-08-10T22:42:01.976Z,99.90
2022-08-10T22:44:52.543Z,99.90
2022-08-10T22:47:39.993Z,99.90
2022-08-10T22:50:10.309Z,99.90
2022-08-10T22:53:01.655Z,99.90
2022-08-10T22:55:55.034Z,99.90
2022-08-10T22:58:40.721Z,99.90
2022-08-10T23:01:42.164Z,99.90
2022-08-10T23:04:45.002Z,99.90
2022-08-10T23:07:18.081Z,99.90
2022-08-10T23:10:12.898Z,99.90
2022-08-10T23:12:41.701Z,99.90
2022-08-10T23:15:54.433Z,99.90
2022-08-10T23:18:55.426Z,99.90
2022-08-10T23:21:28.513Z,99.90
2022-08-10T23:24:23.184Z,99.90
2022-08-10T23:26:54.311Z,99.90
2022-08-10T23:29:23.452Z,99.90
2022-08-10T23:32:06.888Z,99.90
2022-08-10T23:34:36.658Z,99.90
2022-08-10T23:37:08.071Z,99.90
2022-08-10T23:39:41.203Z,99.90
2022-08-10T23:42:19.197Z,99.90
2022-08-10T23:44:55.718Z,99.90
2022-08-10T23:47:25.454Z,99.90
2022-08-10T23:49:55.899Z,99.90
2022-08-10T23:52:30.051Z,99.90
2022-08-10T23:55:04.603Z,99.90
2022-08-10T23:57:34.553Z,99.90
